sensor_id;sensor_type;location;lat;lon;timestamp;temperature;humidity
38936;DHT22;25541;47.458;9.644;2022-10-13T02:47:27;12.00;99.90
38936;DHT22;25541;47.458;9.644;2022-10-13T02:49:52;12.00;99.90
38936;DHT22;25541;47.458;9.644;2022-10-13T02:52:18;12.00;99.90
38936;DHT22;25541;47.458;9.644;2022-10-13T02:54:44;11.90;99.90
38936;DHT22;25541;47.458;9.644;2022-10-13T02:57:09;11.80;99.90
38936;DHT22;25541;47.458;9.644;2022-10-13T02:59:35;11.80;99.90
38936;DHT22;25541;47.458;9.644;2022-10-13T03:02:00;11.80;99.90
38936;DHT22;25541;47.458;9.644;2022-10-13T03:04:26;11.80;99.90
38936;DHT22;25541;47.458;9.644;2022-10-13T03:06:52;11.80;99.90
38936;DHT22;25541;47.458;9.644;2022-10-13T03:09:17;11.80;99.90
38936;DHT22;25541;47.458;9.644;2022-10-13T03:11:43;11.80;99.90
38936;DHT22;25541;47.458;9.644;2022-10-13T03:14:09;11.70;99.90
38936;DHT22;25541;47.458;9.644;2022-10-13T03:16:34;11.80;99.90
38936;DHT22;25541;47.458;9.644;2022-10-13T03:19:00;11.80;99.90
38936;DHT22;25541;47.458;9.644;2022-10-13T03:21:25;11.80;99.90
38936;DHT22;25541;47.458;9.644;2022-10-13T03:23:51;11.80;99.90
38936;DHT22;25541;47.458;9.644;2022-10-13T03:26:17;11.80;99.90
38936;DHT22;25541;47.458;9.644;2022-10-13T03:28:42;11.80;99.90
38936;DHT22;25541;47.458;9.644;2022-10-13T03:31:12;11.80;99.90
38936;DHT22;25541;47.458;9.644;2022-10-13T03:33:39;11.70;99.90
38936;DHT22;25541;47.458;9.644;2022-10-13T03:36:05;11.60;99.90
38936;DHT22;25541;47.458;9.644;2022-10-13T03:38:33;11.60;99.90
38936;DHT22;25541;47.458;9.644;2022-10-13T03:41:14;11.50;99.90
38936;DHT22;25541;47.458;9.644;2022-10-13T03:43:41;11.60;99.90
38936;DHT22;25541;47.458;9.644;2022-10-13T03:46:08;11.50;99.90
38936;DHT22;25541;47.458;9.644;2022-10-13T03:48:35;11.50;99.90
38936;DHT22;25541;47.458;9.644;2022-10-13T03:51:09;11.50;99.90
38936;DHT22;25541;47.458;9.644;2022-10-13T03:53:36;11.40;99.90
38936;DHT22;25541;47.458;9.644;2022-10-13T03:56:03;11.40;99.90
38936;DHT22;25541;47.458;9.644;2022-10-13T03:58:29;11.40;99.90
38936;DHT22;25541;47.458;9.644;2022-10-13T04:00:55;11.40;99.90
38936;DHT22;25541;47.458;9.644;2022-10-13T04:03:22;11.40;99.90
38936;DHT22;25541;47.458;9.644;2022-10-13T04:05:48;11.30;99.90
38936;DHT22;25541;47.458;9.644;2022-10-13T04:08:15;11.40;99.90
38936;DHT22;25541;47.458;9.644;2022-10-13T04:10:41;11.40;99.90
38936;DHT22;25541;47.458;9.644;2022-10-13T04:13:07;11.50;99.90
38936;DHT22;25541;47.458;9.644;2022-10-13T04:15:36;11.50;99.90
38936;DHT22;25541;47.458;9.644;2022-10-13T04:18:02;11.50;99.90
38936;DHT22;25541;47.458;9.644;2022-10-13T04:20:29;11.50;99.90
38936;DHT22;25541;47.458;9.644;2022-10-13T04:22:54;11.50;99.90
38936;DHT22;25541;47.458;9.644;2022-10-13T04:25:20;11.40;99.90
38936;DHT22;25541;47.458;9.644;2022-10-13T04:27:46;11.50;99.90
38936;DHT22;25541;47.458;9.644;2022-10-13T04:30:13;11.40;99.90
38936;DHT22;25541;47.458;9.644;2022-10-13T04:32:39;11.40;99.90
38936;DHT22;25541;47.458;9.644;2022-10-13T04:35:04;11.30;99.90
38936;DHT22;25541;47.458;9.644;2022-10-13T04:37:30;11.20;99.90
38936;DHT22;25541;47.458;9.644;2022-10-13T04:39:56;11.20;99.90
38936;DHT22;25541;47.458;9.644;2022-10-13T04:42:22;11.20;99.90
38936;DHT22;25541;47.458;9.644;2022-10-13T04:44:48;11.10;99.90
38936;DHT22;25541;47.458;9.644;2022-10-13T04:47:13;11.10;99.90
38936;DHT22;25541;47.458;9.644;2022-10-13T04:49:39;11.00;99.90
38936;DHT22;25541;47.458;9.644;2022-10-13T04:52:05;11.10;99.90
38936;DHT22;25541;47.458;9.644;2022-10-13T04:54:30;11.10;99.90
38936;DHT22;25541;47.458;9.644;2022-10-13T04:56:56;11.10;99.90
38936;DHT22;25541;47.458;9.644;2022-10-13T04:59:23;11.10;99.90
38936;DHT22;25541;47.458;9.644;2022-10-13T05:01:49;11.00;99.90
38936;DHT22;25541;47.458;9.644;2022-10-13T05:04:15;11.00;99.90
38936;DHT22;25541;47.458;9.644;2022-10-13T05:06:41;10.90;99.90
38936;DHT22;25541;47.458;9.644;2022-10-13T05:09:06;10.90;99.90
38936;DHT22;25541;47.458;9.644;2022-10-13T05:11:33;10.90;99.90
38936;DHT22;25541;47.458;9.644;2022-10-13T05:14:00;10.90;99.90
38936;DHT22;25541;47.458;9.644;2022-10-13T05:16:26;10.80;99.90
38936;DHT22;25541;47.458;9.644;2022-10-13T05:18:53;10.70;99.90
38936;DHT22;25541;47.458;9.644;2022-10-13T05:21:26;10.70;99.90
38936;DHT22;25541;47.458;9.644;2022-10-13T05:23:53;10.70;99.90
38936;DHT22;25541;47.458;9.644;2022-10-13T05:26:21;10.70;99.90
38936;DHT22;25541;47.458;9.644;2022-10-13T05:28:47;10.80;99.90
38936;DHT22;25541;47.458;9.644;2022-10-13T05:31:21;10.80;99.90
38936;DHT22;25541;47.458;9.644;2022-10-13T05:33:48;10.90;99.90
38936;DHT22;25541;47.458;9.644;2022-10-13T05:36:20;10.80;99.90
38936;DHT22;25541;47.458;9.644;2022-10-13T05:38:50;10.80;99.90
38936;DHT22;25541;47.458;9.644;2022-10-13T05:41:17;10.80;99.90
38936;DHT22;25541;47.458;9.644;2022-10-13T05:43:42;10.80;99.90
38936;DHT22;25541;47.458;9.644;2022-10-13T05:46:09;10.70;99.90
38936;DHT22;25541;47.458;9.644;2022-10-13T05:48:35;10.70;99.90
38936;DHT22;25541;47.458;9.644;2022-10-13T05:51:08;10.80;99.90
38936;DHT22;25541;47.458;9.644;2022-10-13T05:53:37;10.90;99.90
38936;DHT22;25541;47.458;9.644;2022-10-13T05:56:07;10.90;99.90
38936;DHT22;25541;47.458;9.644;2022-10-13T05:58:43;11.10;99.90
38936;DHT22;25541;47.458;9.644;2022-10-13T06:01:12;11.10;99.90
38936;DHT22;25541;47.458;9.644;2022-10-13T06:03:40;11.20;99.90
38936;DHT22;25541;47.458;9.644;2022-10-13T06:06:07;11.30;99.90
38936;DHT22;25541;47.458;9.644;2022-10-13T06:08:33;11.50;99.90
38936;DHT22;25541;47.458;9.644;2022-10-13T06:10:59;12.00;99.90
38936;DHT22;25541;47.458;9.644;2022-10-13T06:13:24;12.60;99.90
38936;DHT22;25541;47.458;9.644;2022-10-13T06:15:50;13.20;99.90
38936;DHT22;25541;47.458;9.644;2022-10-13T06:18:16;13.60;99.90
38936;DHT22;25541;47.458;9.644;2022-10-13T06:20:42;14.00;99.90
38936;DHT22;25541;47.458;9.644;2022-10-13T06:23:08;14.60;99.90
38936;DHT22;25541;47.458;9.644;2022-10-13T06:25:33;15.20;99.90
38936;DHT22;25541;47.458;9.644;2022-10-13T06:28:01;15.80;99.90
38936;DHT22;25541;47.458;9.644;2022-10-13T06:30:26;16.20;95.10
38936;DHT22;25541;47.458;9.644;2022-10-13T06:32:53;16.40;94.90
38936;DHT22;25541;47.458;9.644;2022-10-13T06:35:22;15.80;94.10
38936;DHT22;25541;47.458;9.644;2022-10-13T06:37:48;15.70;95.70
38936;DHT22;25541;47.458;9.644;2022-10-13T06:40:14;15.70;94.60
38936;DHT22;25541;47.458;9.644;2022-10-13T06:42:40;15.60;94.80
38936;DHT22;25541;47.458;9.644;2022-10-13T06:45:06;16.00;94.50
38936;DHT22;25541;47.458;9.644;2022-10-13T06:47:32;17.20;93.10
38936;DHT22;25541;47.458;9.644;2022-10-13T06:49:58;18.30;88.40
38936;DHT22;25541;47.458;9.644;2022-10-13T06:52:24;18.50;86.40
38936;DHT22;25541;47.458;9.644;2022-10-13T06:54:49;18.60;82.60
38936;DHT22;25541;47.458;9.644;2022-10-13T06:57:15;18.90;85.80
38936;DHT22;25541;47.458;9.644;2022-10-13T06:59:41;20.30;81.30
38936;DHT22;25541;47.458;9.644;2022-10-13T07:02:08;21.20;76.40
38936;DHT22;25541;47.458;9.644;2022-10-13T07:04:34;21.40;72.50
38936;DHT22;25541;47.458;9.644;2022-10-13T07:07:00;21.00;72.50
38936;DHT22;25541;47.458;9.644;2022-10-13T07:09:25;20.40;73.60
38936;DHT22;25541;47.458;9.644;2022-10-13T07:11:52;20.10;74.30
38936;DHT22;25541;47.458;9.644;2022-10-13T07:14:18;19.70;76.00
38936;DHT22;25541;47.458;9.644;2022-10-13T07:16:43;19.90;77.50
38936;DHT22;25541;47.458;9.644;2022-10-13T07:19:09;20.40;75.60
38936;DHT22;25541;47.458;9.644;2022-10-13T07:21:35;20.60;71.20
38936;DHT22;25541;47.458;9.644;2022-10-13T07:24:01;20.80;73.90
38936;DHT22;25541;47.458;9.644;2022-10-13T07:26:28;21.00;71.60
38936;DHT22;25541;47.458;9.644;2022-10-13T07:28:54;21.40;71.50
38936;DHT22;25541;47.458;9.644;2022-10-13T07:31:20;22.40;69.90
38936;DHT22;25541;47.458;9.644;2022-10-13T07:33:47;23.10;66.90
38936;DHT22;25541;47.458;9.644;2022-10-13T07:36:13;23.60;65.50
38936;DHT22;25541;47.458;9.644;2022-10-13T07:38:39;23.50;62.90
38936;DHT22;25541;47.458;9.644;2022-10-13T07:41:07;22.70;64.50
38936;DHT22;25541;47.458;9.644;2022-10-13T07:43:33;22.90;67.90
38936;DHT22;25541;47.458;9.644;2022-10-13T07:46:01;24.20;65.60
38936;DHT22;25541;47.458;9.644;2022-10-13T07:48:29;25.70;60.10
38936;DHT22;25541;47.458;9.644;2022-10-13T07:50:54;26.60;56.40
38936;DHT22;25541;47.458;9.644;2022-10-13T07:53:20;27.90;56.30
38936;DHT22;25541;47.458;9.644;2022-10-13T07:55:46;28.50;50.30
38936;DHT22;25541;47.458;9.644;2022-10-13T07:58:13;28.80;53.80
38936;DHT22;25541;47.458;9.644;2022-10-13T08:00:38;29.70;49.90
38936;DHT22;25541;47.458;9.644;2022-10-13T08:03:04;29.30;49.10
38936;DHT22;25541;47.458;9.644;2022-10-13T08:05:30;27.90;49.20
38936;DHT22;25541;47.458;9.644;2022-10-13T08:07:56;24.90;55.10
38936;DHT22;25541;47.458;9.644;2022-10-13T08:10:21;24.00;58.10
38936;DHT22;25541;47.458;9.644;2022-10-13T08:12:47;24.10;56.60
38936;DHT22;25541;47.458;9.644;2022-10-13T08:15:13;24.90;55.60
38936;DHT22;25541;47.458;9.644;2022-10-13T08:17:39;26.50;54.40
38936;DHT22;25541;47.458;9.644;2022-10-13T08:20:05;27.50;51.70
38936;DHT22;25541;47.458;9.644;2022-10-13T08:22:32;26.90;52.90
38936;DHT22;25541;47.458;9.644;2022-10-13T08:24:59;27.50;49.90
38936;DHT22;25541;47.458;9.644;2022-10-13T08:27:26;28.70;48.60
38936;DHT22;25541;47.458;9.644;2022-10-13T08:29:52;29.70;47.70
38936;DHT22;25541;47.458;9.644;2022-10-13T08:32:22;31.20;45.20
38936;DHT22;25541;47.458;9.644;2022-10-13T08:34:48;33.00;44.70
38936;DHT22;25541;47.458;9.644;2022-10-13T08:37:18;33.70;42.50
38936;DHT22;25541;47.458;9.644;2022-10-13T08:39:44;34.30;42.30
38936;DHT22;25541;47.458;9.644;2022-10-13T08:42:20;34.70;40.50
38936;DHT22;25541;47.458;9.644;2022-10-13T08:45:04;33.80;38.80
38936;DHT22;25541;47.458;9.644;2022-10-13T08:50:17;31.10;43.80
38936;DHT22;25541;47.458;9.644;2022-10-13T08:58:13;29.50;46.10
38936;DHT22;25541;47.458;9.644;2022-10-13T09:00:40;29.10;46.40
38936;DHT22;25541;47.458;9.644;2022-10-13T09:03:25;29.10;45.80
38936;DHT22;25541;47.458;9.644;2022-10-13T09:08:47;30.10;44.40
38936;DHT22;25541;47.458;9.644;2022-10-13T09:11:14;30.70;45.10
38936;DHT22;25541;47.458;9.644;2022-10-13T09:13:40;31.00;43.40
38936;DHT22;25541;47.458;9.644;2022-10-13T09:16:06;30.10;43.50
38936;DHT22;25541;47.458;9.644;2022-10-13T09:18:32;28.50;45.90
38936;DHT22;25541;47.458;9.644;2022-10-13T09:23:36;25.60;51.20
38936;DHT22;25541;47.458;9.644;2022-10-13T09:26:07;26.50;49.10
38936;DHT22;25541;47.458;9.644;2022-10-13T09:28:34;26.30;49.60
38936;DHT22;25541;47.458;9.644;2022-10-13T09:31:06;26.70;48.40
38936;DHT22;25541;47.458;9.644;2022-10-13T09:33:38;26.30;48.60
38936;DHT22;25541;47.458;9.644;2022-10-13T09:38:31;25.30;51.40
38936;DHT22;25541;47.458;9.644;2022-10-13T09:43:32;23.50;54.70
38936;DHT22;25541;47.458;9.644;2022-10-13T09:45:58;22.80;57.70
38936;DHT22;25541;47.458;9.644;2022-10-13T09:48:29;22.90;58.50
38936;DHT22;25541;47.458;9.644;2022-10-13T09:50:57;22.70;59.80
38936;DHT22;25541;47.458;9.644;2022-10-13T09:53:38;23.40;58.40
38936;DHT22;25541;47.458;9.644;2022-10-13T10:01:33;23.50;57.30
38936;DHT22;25541;47.458;9.644;2022-10-13T10:04:03;24.30;56.10
38936;DHT22;25541;47.458;9.644;2022-10-13T10:06:31;25.00;54.00
38936;DHT22;25541;47.458;9.644;2022-10-13T10:14:04;26.50;50.70
38936;DHT22;25541;47.458;9.644;2022-10-13T10:16:43;25.80;52.90
38936;DHT22;25541;47.458;9.644;2022-10-13T10:19:25;27.50;50.50
38936;DHT22;25541;47.458;9.644;2022-10-13T10:24:44;27.20;47.80
38936;DHT22;25541;47.458;9.644;2022-10-13T10:27:13;24.70;53.20
38936;DHT22;25541;47.458;9.644;2022-10-13T10:29:59;23.70;55.90
38936;DHT22;25541;47.458;9.644;2022-10-13T10:35:03;21.40;62.70
38936;DHT22;25541;47.458;9.644;2022-10-13T10:45:30;22.10;60.00
38936;DHT22;25541;47.458;9.644;2022-10-13T10:48:11;21.50;62.60
38936;DHT22;25541;47.458;9.644;2022-10-13T10:50:40;21.10;64.10
38936;DHT22;25541;47.458;9.644;2022-10-13T10:53:28;21.30;64.40
38936;DHT22;25541;47.458;9.644;2022-10-13T10:56:33;21.00;64.50
38936;DHT22;25541;47.458;9.644;2022-10-13T10:59:19;20.90;66.80
38936;DHT22;25541;47.458;9.644;2022-10-13T11:04:48;21.00;65.70
38936;DHT22;25541;47.458;9.644;2022-10-13T11:15:07;21.30;64.70
38936;DHT22;25541;47.458;9.644;2022-10-13T11:17:40;21.40;64.80
38936;DHT22;25541;47.458;9.644;2022-10-13T11:25:40;21.40;63.80
38936;DHT22;25541;47.458;9.644;2022-10-13T11:38:57;21.40;63.80
38936;DHT22;25541;47.458;9.644;2022-10-13T11:41:33;20.90;64.70
38936;DHT22;25541;47.458;9.644;2022-10-13T11:44:10;19.90;68.00
38936;DHT22;25541;47.458;9.644;2022-10-13T11:46:54;19.60;69.70
38936;DHT22;25541;47.458;9.644;2022-10-13T11:49:42;19.90;69.80
38936;DHT22;25541;47.458;9.644;2022-10-13T11:52:26;20.00;70.60
38936;DHT22;25541;47.458;9.644;2022-10-13T11:55:10;20.10;68.40
38936;DHT22;25541;47.458;9.644;2022-10-13T11:57:37;19.70;68.60
38936;DHT22;25541;47.458;9.644;2022-10-13T12:00:03;20.30;67.20
38936;DHT22;25541;47.458;9.644;2022-10-13T12:02:29;20.40;66.20
38936;DHT22;25541;47.458;9.644;2022-10-13T12:07:36;19.90;67.90
38936;DHT22;25541;47.458;9.644;2022-10-13T12:10:06;19.90;68.10
38936;DHT22;25541;47.458;9.644;2022-10-13T12:12:48;20.40;66.80
38936;DHT22;25541;47.458;9.644;2022-10-13T12:18:00;20.50;66.50
38936;DHT22;25541;47.458;9.644;2022-10-13T12:20:28;20.80;65.00
38936;DHT22;25541;47.458;9.644;2022-10-13T12:22:55;20.80;66.70
38936;DHT22;25541;47.458;9.644;2022-10-13T12:25:23;20.70;66.10
38936;DHT22;25541;47.458;9.644;2022-10-13T12:27:56;21.00;65.90
38936;DHT22;25541;47.458;9.644;2022-10-13T12:30:26;21.20;66.20
38936;DHT22;25541;47.458;9.644;2022-10-13T12:32:55;21.40;65.10
38936;DHT22;25541;47.458;9.644;2022-10-13T12:35:30;21.60;65.30
38936;DHT22;25541;47.458;9.644;2022-10-13T12:37:59;21.60;63.70
38936;DHT22;25541;47.458;9.644;2022-10-13T12:40:26;21.00;65.50
38936;DHT22;25541;47.458;9.644;2022-10-13T12:42:52;20.70;65.90
38936;DHT22;25541;47.458;9.644;2022-10-13T12:45:20;20.50;68.00
38936;DHT22;25541;47.458;9.644;2022-10-13T12:47:52;21.00;67.40
38936;DHT22;25541;47.458;9.644;2022-10-13T12:52:47;20.80;68.10
38936;DHT22;25541;47.458;9.644;2022-10-13T12:55:16;20.30;69.40
38936;DHT22;25541;47.458;9.644;2022-10-13T12:57:45;20.20;68.40
38936;DHT22;25541;47.458;9.644;2022-10-13T13:03:00;20.10;68.50
38936;DHT22;25541;47.458;9.644;2022-10-13T13:05:37;20.20;67.20
38936;DHT22;25541;47.458;9.644;2022-10-13T13:08:24;20.00;69.20
38936;DHT22;25541;47.458;9.644;2022-10-13T13:11:02;20.10;68.50
38936;DHT22;25541;47.458;9.644;2022-10-13T13:13:29;20.40;67.10
38936;DHT22;25541;47.458;9.644;2022-10-13T13:16:19;20.40;66.50
38936;DHT22;25541;47.458;9.644;2022-10-13T13:18:47;20.20;68.60
38936;DHT22;25541;47.458;9.644;2022-10-13T13:21:15;20.10;68.30
38936;DHT22;25541;47.458;9.644;2022-10-13T13:23:42;19.90;69.00
38936;DHT22;25541;47.458;9.644;2022-10-13T13:26:16;19.90;69.20
38936;DHT22;25541;47.458;9.644;2022-10-13T13:28:53;19.70;70.70
38936;DHT22;25541;47.458;9.644;2022-10-13T13:31:23;19.80;69.90
38936;DHT22;25541;47.458;9.644;2022-10-13T13:33:49;19.70;72.10
38936;DHT22;25541;47.458;9.644;2022-10-13T13:38:44;19.90;72.40
38936;DHT22;25541;47.458;9.644;2022-10-13T13:41:10;20.10;71.90
38936;DHT22;25541;47.458;9.644;2022-10-13T13:43:37;20.10;71.20
38936;DHT22;25541;47.458;9.644;2022-10-13T13:46:04;20.00;71.80
38936;DHT22;25541;47.458;9.644;2022-10-13T13:48:30;20.20;70.80
38936;DHT22;25541;47.458;9.644;2022-10-13T13:50:56;20.10;71.80
38936;DHT22;25541;47.458;9.644;2022-10-13T13:53:21;20.10;72.00
38936;DHT22;25541;47.458;9.644;2022-10-13T13:55:47;19.90;71.80
38936;DHT22;25541;47.458;9.644;2022-10-13T13:58:13;19.90;72.20
38936;DHT22;25541;47.458;9.644;2022-10-13T14:00:38;19.90;72.00
38936;DHT22;25541;47.458;9.644;2022-10-13T14:03:04;20.20;72.10
38936;DHT22;25541;47.458;9.644;2022-10-13T14:05:30;20.40;70.70
38936;DHT22;25541;47.458;9.644;2022-10-13T14:07:56;20.60;70.50
38936;DHT22;25541;47.458;9.644;2022-10-13T14:10:23;20.50;70.40
38936;DHT22;25541;47.458;9.644;2022-10-13T14:12:49;20.10;72.00
38936;DHT22;25541;47.458;9.644;2022-10-13T14:15:16;20.10;71.10
38936;DHT22;25541;47.458;9.644;2022-10-13T14:17:41;20.20;71.30
38936;DHT22;25541;47.458;9.644;2022-10-13T14:20:07;20.00;71.20
38936;DHT22;25541;47.458;9.644;2022-10-13T14:22:36;20.00;70.90
38936;DHT22;25541;47.458;9.644;2022-10-13T14:25:02;19.90;73.70
38936;DHT22;25541;47.458;9.644;2022-10-13T14:27:28;19.60;74.80
38936;DHT22;25541;47.458;9.644;2022-10-13T14:29:55;19.50;74.90
38936;DHT22;25541;47.458;9.644;2022-10-13T14:32:21;19.40;74.80
38936;DHT22;25541;47.458;9.644;2022-10-13T14:34:47;19.20;76.20
38936;DHT22;25541;47.458;9.644;2022-10-13T14:37:12;19.20;75.50
38936;DHT22;25541;47.458;9.644;2022-10-13T14:39:38;19.40;75.50
38936;DHT22;25541;47.458;9.644;2022-10-13T14:42:04;19.50;73.70
38936;DHT22;25541;47.458;9.644;2022-10-13T14:44:29;19.50;74.10
38936;DHT22;25541;47.458;9.644;2022-10-13T14:46:55;19.50;74.60
38936;DHT22;25541;47.458;9.644;2022-10-13T14:49:21;19.30;74.60
38936;DHT22;25541;47.458;9.644;2022-10-13T14:51:46;19.20;75.40
38936;DHT22;25541;47.458;9.644;2022-10-13T14:54:12;19.20;76.60
38936;DHT22;25541;47.458;9.644;2022-10-13T14:56:38;19.10;76.10
38936;DHT22;25541;47.458;9.644;2022-10-13T14:59:05;19.10;76.00
38936;DHT22;25541;47.458;9.644;2022-10-13T15:01:31;19.00;75.90
38936;DHT22;25541;47.458;9.644;2022-10-13T15:03:58;18.80;77.70
38936;DHT22;25541;47.458;9.644;2022-10-13T15:06:25;18.80;77.80
38936;DHT22;25541;47.458;9.644;2022-10-13T15:08:51;18.80;77.70
38936;DHT22;25541;47.458;9.644;2022-10-13T15:11:19;18.80;78.40
38936;DHT22;25541;47.458;9.644;2022-10-13T15:13:45;18.90;77.90
38936;DHT22;25541;47.458;9.644;2022-10-13T15:16:25;19.00;77.80
38936;DHT22;25541;47.458;9.644;2022-10-13T15:18:53;19.00;78.00
38936;DHT22;25541;47.458;9.644;2022-10-13T15:21:19;18.90;77.40
38936;DHT22;25541;47.458;9.644;2022-10-13T15:23:45;18.90;77.30
38936;DHT22;25541;47.458;9.644;2022-10-13T15:26:13;18.80;77.60
38936;DHT22;25541;47.458;9.644;2022-10-13T15:28:45;18.80;78.40
38936;DHT22;25541;47.458;9.644;2022-10-13T15:31:12;18.70;78.90
38936;DHT22;25541;47.458;9.644;2022-10-13T15:33:40;18.50;79.20
38936;DHT22;25541;47.458;9.644;2022-10-13T15:36:06;18.40;79.70
38936;DHT22;25541;47.458;9.644;2022-10-13T15:38:32;18.40;79.50
38936;DHT22;25541;47.458;9.644;2022-10-13T15:41:01;18.40;80.10
38936;DHT22;25541;47.458;9.644;2022-10-13T15:43:27;18.40;80.40
38936;DHT22;25541;47.458;9.644;2022-10-13T15:45:55;18.50;80.60
38936;DHT22;25541;47.458;9.644;2022-10-13T15:48:21;18.40;80.90
38936;DHT22;25541;47.458;9.644;2022-10-13T15:50:47;18.30;80.10
38936;DHT22;25541;47.458;9.644;2022-10-13T15:53:12;18.30;80.80
38936;DHT22;25541;47.458;9.644;2022-10-13T15:55:38;18.40;81.20
38936;DHT22;25541;47.458;9.644;2022-10-13T15:58:05;18.30;80.90
38936;DHT22;25541;47.458;9.644;2022-10-13T16:00:30;18.30;81.30
38936;DHT22;25541;47.458;9.644;2022-10-13T16:02:56;18.10;81.60
38936;DHT22;25541;47.458;9.644;2022-10-13T16:05:22;18.00;82.70
38936;DHT22;25541;47.458;9.644;2022-10-13T16:07:47;17.70;84.60
38936;DHT22;25541;47.458;9.644;2022-10-13T16:10:14;17.50;85.00
38936;DHT22;25541;47.458;9.644;2022-10-13T16:12:41;17.50;85.30
38936;DHT22;25541;47.458;9.644;2022-10-13T16:15:08;17.60;85.80
38936;DHT22;25541;47.458;9.644;2022-10-13T16:17:34;17.50;85.70
38936;DHT22;25541;47.458;9.644;2022-10-13T16:20:00;17.40;85.50
38936;DHT22;25541;47.458;9.644;2022-10-13T16:22:26;17.50;86.20
38936;DHT22;25541;47.458;9.644;2022-10-13T16:24:51;17.50;86.80
38936;DHT22;25541;47.458;9.644;2022-10-13T16:27:17;17.50;87.10
38936;DHT22;25541;47.458;9.644;2022-10-13T16:29:43;17.50;87.10
38936;DHT22;25541;47.458;9.644;2022-10-13T16:32:08;17.40;87.00
38936;DHT22;25541;47.458;9.644;2022-10-13T16:34:34;17.30;87.70
38936;DHT22;25541;47.458;9.644;2022-10-13T16:37:00;17.20;87.90
38936;DHT22;25541;47.458;9.644;2022-10-13T16:39:26;17.20;88.20
38936;DHT22;25541;47.458;9.644;2022-10-13T16:41:53;17.10;89.50
38936;DHT22;25541;47.458;9.644;2022-10-13T16:44:18;17.10;89.70
38936;DHT22;25541;47.458;9.644;2022-10-13T16:46:44;17.00;89.70
38936;DHT22;25541;47.458;9.644;2022-10-13T16:49:10;17.00;89.70
38936;DHT22;25541;47.458;9.644;2022-10-13T16:51:37;17.10;90.00
38936;DHT22;25541;47.458;9.644;2022-10-13T16:54:03;17.00;90.00
38936;DHT22;25541;47.458;9.644;2022-10-13T16:56:29;17.00;90.20
38936;DHT22;25541;47.458;9.644;2022-10-13T16:59:00;17.00;90.60
38936;DHT22;25541;47.458;9.644;2022-10-13T17:01:27;16.90;90.70
38936;DHT22;25541;47.458;9.644;2022-10-13T17:03:53;16.90;91.00
38936;DHT22;25541;47.458;9.644;2022-10-13T17:06:21;16.80;91.50
38936;DHT22;25541;47.458;9.644;2022-10-13T17:08:48;16.80;91.70
38936;DHT22;25541;47.458;9.644;2022-10-13T17:11:19;16.80;91.80
38936;DHT22;25541;47.458;9.644;2022-10-13T17:13:46;16.80;92.20
38936;DHT22;25541;47.458;9.644;2022-10-13T17:16:12;16.80;92.10
38936;DHT22;25541;47.458;9.644;2022-10-13T17:18:37;16.80;92.00
38936;DHT22;25541;47.458;9.644;2022-10-13T17:21:05;16.80;92.00
38936;DHT22;25541;47.458;9.644;2022-10-13T17:23:33;16.80;92.10
38936;DHT22;25541;47.458;9.644;2022-10-13T17:26:04;16.80;92.30
38936;DHT22;25541;47.458;9.644;2022-10-13T17:28:31;16.80;92.30
38936;DHT22;25541;47.458;9.644;2022-10-13T17:30:58;16.80;92.30
38936;DHT22;25541;47.458;9.644;2022-10-13T17:33:26;16.70;92.30
38936;DHT22;25541;47.458;9.644;2022-10-13T17:36:04;16.70;92.50
38936;DHT22;25541;47.458;9.644;2022-10-13T17:38:30;16.60;93.00
38936;DHT22;25541;47.458;9.644;2022-10-13T17:41:00;16.40;93.60
38936;DHT22;25541;47.458;9.644;2022-10-13T17:43:27;16.20;94.90
38936;DHT22;25541;47.458;9.644;2022-10-13T17:45:53;16.30;94.70
38936;DHT22;25541;47.458;9.644;2022-10-13T17:48:18;16.40;94.80
38936;DHT22;25541;47.458;9.644;2022-10-13T17:50:44;16.50;94.80
38936;DHT22;25541;47.458;9.644;2022-10-13T17:53:10;16.50;94.60
38936;DHT22;25541;47.458;9.644;2022-10-13T17:55:36;16.60;94.70
38936;DHT22;25541;47.458;9.644;2022-10-13T17:58:03;16.60;94.80
38936;DHT22;25541;47.458;9.644;2022-10-13T18:00:29;16.60;95.10
38936;DHT22;25541;47.458;9.644;2022-10-13T18:02:55;16.50;94.90
38936;DHT22;25541;47.458;9.644;2022-10-13T18:05:21;16.50;95.10
38936;DHT22;25541;47.458;9.644;2022-10-13T18:07:46;16.60;95.60
38936;DHT22;25541;47.458;9.644;2022-10-13T18:10:12;16.50;96.40
38936;DHT22;25541;47.458;9.644;2022-10-13T18:12:40;16.60;96.90
38936;DHT22;25541;47.458;9.644;2022-10-13T18:15:06;16.40;97.40
38936;DHT22;25541;47.458;9.644;2022-10-13T18:17:32;16.20;99.90
38936;DHT22;25541;47.458;9.644;2022-10-13T18:19:57;15.90;99.90
38936;DHT22;25541;47.458;9.644;2022-10-13T18:22:23;15.90;99.90
38936;DHT22;25541;47.458;9.644;2022-10-13T18:24:49;15.80;99.90
38936;DHT22;25541;47.458;9.644;2022-10-13T18:27:14;15.90;99.90
38936;DHT22;25541;47.458;9.644;2022-10-13T18:29:41;16.10;99.90
38936;DHT22;25541;47.458;9.644;2022-10-13T18:32:06;16.00;99.90
38936;DHT22;25541;47.458;9.644;2022-10-13T18:34:32;16.00;99.90
38936;DHT22;25541;47.458;9.644;2022-10-13T18:36:58;15.90;99.90
38936;DHT22;25541;47.458;9.644;2022-10-13T18:39:27;15.90;99.90
38936;DHT22;25541;47.458;9.644;2022-10-13T18:41:54;15.90;99.90
38936;DHT22;25541;47.458;9.644;2022-10-13T18:44:20;15.80;99.90
38936;DHT22;25541;47.458;9.644;2022-10-13T18:46:51;15.70;99.90
38936;DHT22;25541;47.458;9.644;2022-10-13T18:49:17;15.80;99.90
38936;DHT22;25541;47.458;9.644;2022-10-13T18:51:45;15.80;99.90
38936;DHT22;25541;47.458;9.644;2022-10-13T18:54:10;15.80;99.90
38936;DHT22;25541;47.458;9.644;2022-10-13T18:56:36;15.70;99.90
38936;DHT22;25541;47.458;9.644;2022-10-13T18:59:03;15.70;99.90
38936;DHT22;25541;47.458;9.644;2022-10-13T19:01:31;15.50;99.90
38936;DHT22;25541;47.458;9.644;2022-10-13T19:03:58;15.30;99.90
38936;DHT22;25541;47.458;9.644;2022-10-13T19:06:25;15.30;99.90
38936;DHT22;25541;47.458;9.644;2022-10-13T19:08:56;15.40;99.90
38936;DHT22;25541;47.458;9.644;2022-10-13T19:11:23;15.20;99.90
38936;DHT22;25541;47.458;9.644;2022-10-13T19:13:49;15.20;99.90
38936;DHT22;25541;47.458;9.644;2022-10-13T19:16:18;15.20;99.90
38936;DHT22;25541;47.458;9.644;2022-10-13T19:18:45;15.20;99.90
38936;DHT22;25541;47.458;9.644;2022-10-13T19:21:10;15.10;99.90
38936;DHT22;25541;47.458;9.644;2022-10-13T19:23:37;14.80;99.90
38936;DHT22;25541;47.458;9.644;2022-10-13T19:26:17;14.90;99.90
38936;DHT22;25541;47.458;9.644;2022-10-13T19:28:46;14.80;99.90
38936;DHT22;25541;47.458;9.644;2022-10-13T19:31:18;14.80;99.90
38936;DHT22;25541;47.458;9.644;2022-10-13T19:33:45;14.90;99.90
38936;DHT22;25541;47.458;9.644;2022-10-13T19:36:20;14.90;99.90
38936;DHT22;25541;47.458;9.644;2022-10-13T19:38:46;15.00;99.90
38936;DHT22;25541;47.458;9.644;2022-10-13T19:41:12;15.10;99.90
38936;DHT22;25541;47.458;9.644;2022-10-13T19:43:37;15.10;99.90